Time;durP1;ratioP1;P1;durP2;ratioP2;P2;SDS_P1;SDS_P2;PMS_P1;PMS_P2;Temp;Humidity;BMP_temperature;BMP_pressure;BME280_temperature;BME280_humidity;BME280_pressure;Samples;Min_cycle;Max_cycle;Signal;HPM_P1;HPM_P2
2023/03/19 00:00:25;;;;;;;0.60;0.60;;;;;;;;;;7403635;19;20145;-86
2023/03/19 00:02:52;;;;;;;0.40;0.40;;;;;;;;;;7404880;19;20197;-87
2023/03/19 00:05:18;;;;;;;0.37;0.37;;;;;;;;;;7402339;19;20151;-87
2023/03/19 00:07:45;;;;;;;0.37;0.37;;;;;;;;;;7408731;19;20177;-86
2023/03/19 00:10:12;;;;;;;0.63;0.63;;;;;;;;;;7406964;19;20128;-86
2023/03/19 00:12:38;;;;;;;0.50;0.50;;;;;;;;;;7407749;19;20153;-87
2023/03/19 00:15:07;;;;;;;1.43;0.50;;;;;;;;;;7406161;19;20160;-86
2023/03/19 00:17:34;;;;;;;0.40;0.40;;;;;;;;;;7405879;19;20643;-86
2023/03/19 00:20:01;;;;;;;0.93;0.73;;;;;;;;;;7406182;19;20153;-89
2023/03/19 00:22:28;;;;;;;1.07;0.70;;;;;;;;;;7404563;19;20495;-88
2023/03/19 00:24:54;;;;;;;4.13;0.50;;;;;;;;;;7403433;19;20181;-89
2023/03/19 00:27:21;;;;;;;0.30;0.30;;;;;;;;;;7405040;19;20137;-88
2023/03/19 00:29:47;;;;;;;0.40;0.40;;;;;;;;;;7405121;19;20177;-88
2023/03/19 00:32:14;;;;;;;0.50;0.50;;;;;;;;;;7406350;19;20169;-87
2023/03/19 00:34:41;;;;;;;0.60;0.60;;;;;;;;;;7405271;19;20173;-87
2023/03/19 00:37:08;;;;;;;0.43;0.43;;;;;;;;;;7407454;19;20151;-87
2023/03/19 00:39:35;;;;;;;0.83;0.83;;;;;;;;;;7406720;19;20149;-91
2023/03/19 00:42:01;;;;;;;0.40;0.40;;;;;;;;;;7406438;19;20182;-88
2023/03/19 00:44:28;;;;;;;0.70;0.70;;;;;;;;;;7403725;19;20547;-90
2023/03/19 00:46:54;;;;;;;0.30;0.30;;;;;;;;;;7403536;19;20149;-89
2023/03/19 00:49:21;;;;;;;0.40;0.40;;;;;;;;;;7406359;19;20133;-87
2023/03/19 00:51:47;;;;;;;0.57;0.57;;;;;;;;;;7403938;19;20140;-87
2023/03/19 00:54:14;;;;;;;0.67;0.67;;;;;;;;;;7405570;19;20190;-90
2023/03/19 00:56:40;;;;;;;1.70;1.60;;;;;;;;;;7405785;19;20145;-90
2023/03/19 00:59:07;;;;;;;2.33;1.70;;;;;;;;;;7408413;19;20157;-87
2023/03/19 01:01:33;;;;;;;0.70;0.70;;;;;;;;;;7403708;19;20173;-88
2023/03/19 01:04:00;;;;;;;0.40;0.40;;;;;;;;;;7402840;19;20168;-89
2023/03/19 01:06:27;;;;;;;0.40;0.40;;;;;;;;;;7403439;19;20164;-88
2023/03/19 01:08:53;;;;;;;3.37;0.90;;;;;;;;;;7408230;19;20664;-87
2023/03/19 01:11:20;;;;;;;0.67;0.67;;;;;;;;;;7408620;19;20617;-89
2023/03/19 01:13:46;;;;;;;0.60;0.60;;;;;;;;;;7404355;19;20152;-88
2023/03/19 01:16:13;;;;;;;2.67;0.87;;;;;;;;;;7407936;19;20141;-88
2023/03/19 01:18:39;;;;;;;0.40;0.40;;;;;;;;;;7406090;19;20141;-88
2023/03/19 01:21:07;;;;;;;0.40;0.40;;;;;;;;;;7403237;19;20145;-88
2023/03/19 01:23:33;;;;;;;1.80;1.40;;;;;;;;;;7404730;19;20196;-89
2023/03/19 01:26:00;;;;;;;1.10;1.00;;;;;;;;;;7404656;19;20121;-89
2023/03/19 01:28:27;;;;;;;0.70;0.70;;;;;;;;;;7414742;19;20141;-91
2023/03/19 01:30:57;;;;;;;1.37;1.17;;;;;;;;;;7427150;19;20161;-90
2023/03/19 01:33:24;;;;;;;0.43;0.43;;;;;;;;;;7426943;19;20172;-90
2023/03/19 01:35:51;;;;;;;0.40;0.40;;;;;;;;;;7422484;19;20155;-89
2023/03/19 01:38:18;;;;;;;0.83;0.77;;;;;;;;;;7413255;19;20157;-90
2023/03/19 01:40:46;;;;;;;0.70;0.70;;;;;;;;;;7398108;19;20161;-90
2023/03/19 01:43:16;;;;;;;1.17;1.13;;;;;;;;;;7402093;19;20640;-88
2023/03/19 01:45:43;;;;;;;0.77;0.77;;;;;;;;;;7401416;19;20177;-90
2023/03/19 01:48:34;;;;;;;0.97;0.97;;;;;;;;;;7402435;19;20149;-89
2023/03/19 01:51:01;;;;;;;0.40;0.40;;;;;;;;;;7400550;19;20164;-89
2023/03/19 01:53:30;;;;;;;0.43;0.43;;;;;;;;;;7401045;19;20185;-88
2023/03/19 01:56:11;;;;;;;0.63;0.63;;;;;;;;;;7397971;19;20164;-88
2023/03/19 01:58:39;;;;;;;1.37;0.67;;;;;;;;;;7399264;19;20176;-87
2023/03/19 02:01:05;;;;;;;1.80;1.53;;;;;;;;;;7399060;19;20145;-87
2023/03/19 02:03:32;;;;;;;0.80;0.80;;;;;;;;;;7398475;19;20196;-89
2023/03/19 02:05:59;;;;;;;1.27;0.70;;;;;;;;;;7399287;19;20177;-89
2023/03/19 02:08:26;;;;;;;0.60;0.60;;;;;;;;;;7399106;19;20145;-90
2023/03/19 02:10:54;;;;;;;1.57;0.90;;;;;;;;;;7396799;19;20157;-88
2023/03/19 02:13:22;;;;;;;1.03;0.90;;;;;;;;;;7400121;19;20193;-90
2023/03/19 02:15:49;;;;;;;0.70;0.70;;;;;;;;;;7401112;19;20518;-87
2023/03/19 02:18:17;;;;;;;0.53;0.53;;;;;;;;;;7399162;19;20170;-88
2023/03/19 02:20:59;;;;;;;1.27;1.13;;;;;;;;;;7398647;19;20137;-89
2023/03/19 02:23:36;;;;;;;2.20;0.60;;;;;;;;;;7398168;19;20180;-89
2023/03/19 02:26:08;;;;;;;1.27;0.80;;;;;;;;;;7398024;19;20149;-89
2023/03/19 02:28:37;;;;;;;0.50;0.50;;;;;;;;;;7395954;19;20137;-88
2023/03/19 02:31:05;;;;;;;1.43;1.33;;;;;;;;;;7397550;19;20657;-90
2023/03/19 02:33:32;;;;;;;1.70;1.60;;;;;;;;;;7396662;19;20193;-90
2023/03/19 02:35:59;;;;;;;0.50;0.50;;;;;;;;;;7397938;19;20145;-90
2023/03/19 02:38:26;;;;;;;0.73;0.73;;;;;;;;;;7394214;19;20165;-89
2023/03/19 02:40:59;;;;;;;0.30;0.30;;;;;;;;;;7395107;19;20178;-87
2023/03/19 02:43:26;;;;;;;0.40;0.40;;;;;;;;;;7401496;19;20152;-88
2023/03/19 02:45:53;;;;;;;1.90;0.73;;;;;;;;;;7398573;19;20137;-87
2023/03/19 02:48:19;;;;;;;0.40;0.40;;;;;;;;;;7402634;19;20497;-86
2023/03/19 02:50:46;;;;;;;0.60;0.60;;;;;;;;;;7400108;19;20144;-88
2023/03/19 02:53:12;;;;;;;0.83;0.83;;;;;;;;;;7396812;19;20172;-87
2023/03/19 02:55:39;;;;;;;1.03;1.03;;;;;;;;;;7397300;19;20176;-89
2023/03/19 02:58:06;;;;;;;0.40;0.40;;;;;;;;;;7397004;19;20161;-89
2023/03/19 03:00:32;;;;;;;1.50;1.03;;;;;;;;;;7394442;19;20149;-89
2023/03/19 03:03:00;;;;;;;0.93;0.87;;;;;;;;;;7392619;19;20165;-90
2023/03/19 03:05:27;;;;;;;0.63;0.57;;;;;;;;;;7394233;19;20165;-90
2023/03/19 03:07:53;;;;;;;0.50;0.50;;;;;;;;;;7395237;19;20468;-90
2023/03/19 03:10:20;;;;;;;1.70;0.73;;;;;;;;;;7401189;19;20132;-90
2023/03/19 05:26:08;;;;;;;0.73;0.50;;;;;;;;;;7401186;19;20153;-91
2023/03/19 05:28:35;;;;;;;0.63;0.63;;;;;;;;;;7395749;19;20129;-89
2023/03/19 05:31:03;;;;;;;0.70;0.70;;;;;;;;;;7394660;19;20133;-91
2023/03/19 05:33:31;;;;;;;0.40;0.40;;;;;;;;;;7396152;19;20554;-91
2023/03/19 05:35:57;;;;;;;0.73;0.40;;;;;;;;;;7396223;19;20121;-91
2023/03/19 05:38:24;;;;;;;0.37;0.37;;;;;;;;;;7396392;19;20133;-91
2023/03/19 05:40:51;;;;;;;0.60;0.60;;;;;;;;;;7395736;19;20200;-92
2023/03/19 05:43:17;;;;;;;0.63;0.63;;;;;;;;;;7394754;19;20631;-92
2023/03/19 05:45:50;;;;;;;0.30;0.30;;;;;;;;;;7405974;19;20874;-92
2023/03/19 05:48:17;;;;;;;0.33;0.33;;;;;;;;;;7421310;19;20129;-92
2023/03/19 05:50:43;;;;;;;0.40;0.40;;;;;;;;;;7427532;19;20129;-91
2023/03/19 05:53:10;;;;;;;0.80;0.80;;;;;;;;;;7426429;19;20152;-92
2023/03/19 05:55:36;;;;;;;0.50;0.50;;;;;;;;;;7408403;19;20141;-91
2023/03/19 05:58:03;;;;;;;0.40;0.40;;;;;;;;;;7416584;19;20149;-91
2023/03/19 06:00:30;;;;;;;0.30;0.30;;;;;;;;;;7430409;19;20153;-91
2023/03/19 06:02:57;;;;;;;0.37;0.37;;;;;;;;;;7430681;19;20141;-91
2023/03/19 06:05:23;;;;;;;0.40;0.40;;;;;;;;;;7431046;19;20136;-90
2023/03/19 06:07:50;;;;;;;0.73;0.73;;;;;;;;;;7427351;19;20140;-91
2023/03/19 06:10:18;;;;;;;0.40;0.40;;;;;;;;;;7428304;19;20156;-91
2023/03/19 06:12:45;;;;;;;0.73;0.73;;;;;;;;;;7428085;19;20141;-91
2023/03/19 06:15:12;;;;;;;0.40;0.40;;;;;;;;;;7429762;19;20161;-91
2023/03/19 06:17:38;;;;;;;0.77;0.40;;;;;;;;;;7430172;19;20149;-90
2023/03/19 06:20:05;;;;;;;0.63;0.63;;;;;;;;;;7409465;19;20141;-92
2023/03/19 06:22:32;;;;;;;0.30;0.30;;;;;;;;;;7397944;19;20160;-92
2023/03/19 06:24:58;;;;;;;0.60;0.60;;;;;;;;;;7398235;19;20602;-92
2023/03/19 06:27:25;;;;;;;0.70;0.70;;;;;;;;;;7395691;19;20140;-92
2023/03/19 06:29:51;;;;;;;0.40;0.40;;;;;;;;;;7398958;19;20137;-91
2023/03/19 06:32:18;;;;;;;0.30;0.30;;;;;;;;;;7398758;19;20145;-91
2023/03/19 06:34:45;;;;;;;0.30;0.30;;;;;;;;;;7398991;19;20128;-92
2023/03/19 06:37:11;;;;;;;0.50;0.50;;;;;;;;;;7399183;19;20157;-91
2023/03/19 06:39:38;;;;;;;1.00;0.80;;;;;;;;;;7398812;19;20121;-92
2023/03/19 06:42:05;;;;;;;0.70;0.70;;;;;;;;;;7397581;19;20137;-91
2023/03/19 06:44:32;;;;;;;0.40;0.40;;;;;;;;;;7400552;19;20168;-92
2023/03/19 06:46:58;;;;;;;0.50;0.50;;;;;;;;;;7399195;19;20647;-92
2023/03/19 06:49:26;;;;;;;0.40;0.40;;;;;;;;;;7404295;19;20129;-91
2023/03/19 06:51:52;;;;;;;0.70;0.70;;;;;;;;;;7399126;19;20113;-91
2023/03/19 06:54:19;;;;;;;0.40;0.40;;;;;;;;;;7397688;19;20145;-92
2023/03/19 06:56:46;;;;;;;0.40;0.40;;;;;;;;;;7400663;19;20550;-92
2023/03/19 06:59:14;;;;;;;1.03;1.00;;;;;;;;;;7401044;19;20602;-93
2023/03/19 07:01:41;;;;;;;0.40;0.40;;;;;;;;;;7398840;19;20117;-92
2023/03/19 07:04:08;;;;;;;0.40;0.40;;;;;;;;;;7398722;19;20172;-92
2023/03/19 07:06:34;;;;;;;1.50;0.47;;;;;;;;;;7397997;19;20638;-92
2023/03/19 07:09:01;;;;;;;0.30;0.30;;;;;;;;;;7395254;19;20125;-92
2023/03/19 07:11:27;;;;;;;0.50;0.50;;;;;;;;;;7403088;19;20149;-92
2023/03/19 07:13:54;;;;;;;0.50;0.50;;;;;;;;;;7407202;19;20516;-92
2023/03/19 07:16:20;;;;;;;0.50;0.50;;;;;;;;;;7407464;19;20125;-93
2023/03/19 07:18:47;;;;;;;0.77;0.77;;;;;;;;;;7410227;19;20163;-92
2023/03/19 07:21:13;;;;;;;0.50;0.50;;;;;;;;;;7408537;19;20157;-93
2023/03/19 07:23:40;;;;;;;0.43;0.43;;;;;;;;;;7407242;19;20155;-93
2023/03/19 07:26:07;;;;;;;0.40;0.40;;;;;;;;;;7404606;19;20600;-93
2023/03/19 07:28:33;;;;;;;0.63;0.63;;;;;;;;;;7397712;19;20603;-93
2023/03/19 07:31:00;;;;;;;0.40;0.40;;;;;;;;;;7399866;19;20157;-91
2023/03/19 07:33:26;;;;;;;0.30;0.30;;;;;;;;;;7395178;19;20157;-93
2023/03/19 07:35:53;;;;;;;0.93;0.83;;;;;;;;;;7395507;19;20129;-92
2023/03/19 07:38:20;;;;;;;0.57;0.57;;;;;;;;;;7398586;19;20129;-92
2023/03/19 07:40:46;;;;;;;0.40;0.40;;;;;;;;;;7399926;19;20148;-91
2023/03/19 07:43:27;;;;;;;0.33;0.33;;;;;;;;;;7398891;19;20168;-91
2023/03/19 07:45:54;;;;;;;0.30;0.30;;;;;;;;;;7402102;19;20153;-89
2023/03/19 07:48:20;;;;;;;0.30;0.30;;;;;;;;;;7400690;19;20232;-92
2023/03/19 07:50:50;;;;;;;0.57;0.57;;;;;;;;;;7398409;19;20145;-92
2023/03/19 07:53:17;;;;;;;0.40;0.40;;;;;;;;;;7399408;19;20157;-92
2023/03/19 07:55:44;;;;;;;2.17;1.20;;;;;;;;;;7405176;19;20145;-93
2023/03/19 07:58:10;;;;;;;0.50;0.50;;;;;;;;;;7406197;19;20147;-93
2023/03/19 08:00:37;;;;;;;0.30;0.30;;;;;;;;;;7406024;19;20144;-92
2023/03/19 08:03:03;;;;;;;0.40;0.37;;;;;;;;;;7400570;19;20189;-92
2023/03/19 08:05:30;;;;;;;0.60;0.60;;;;;;;;;;7400465;19;20152;-94
2023/03/19 08:07:57;;;;;;;1.00;1.00;;;;;;;;;;7403160;19;20141;-92
2023/03/19 08:10:23;;;;;;;0.60;0.60;;;;;;;;;;7411358;19;20145;-92
2023/03/19 08:12:50;;;;;;;0.43;0.43;;;;;;;;;;7402402;19;20577;-93
2023/03/19 08:15:16;;;;;;;0.33;0.33;;;;;;;;;;7399888;19;20141;-92
2023/03/19 08:17:43;;;;;;;0.40;0.40;;;;;;;;;;7398900;19;20604;-92
2023/03/19 08:20:13;;;;;;;0.60;0.60;;;;;;;;;;7401015;19;20163;-91
2023/03/19 08:22:40;;;;;;;0.40;0.40;;;;;;;;;;7398085;19;20228;-92
2023/03/19 08:25:08;;;;;;;0.80;0.77;;;;;;;;;;7396115;19;20208;-93
2023/03/19 08:27:35;;;;;;;0.30;0.30;;;;;;;;;;7397009;19;20144;-92
2023/03/19 08:30:04;;;;;;;0.87;0.87;;;;;;;;;;7398429;19;20154;-91
2023/03/19 08:32:30;;;;;;;0.50;0.50;;;;;;;;;;7398554;19;20151;-92
2023/03/19 08:34:57;;;;;;;0.50;0.50;;;;;;;;;;7398506;19;20223;-91
2023/03/19 08:37:24;;;;;;;0.60;0.60;;;;;;;;;;7400920;19;20141;-90
2023/03/19 08:39:54;;;;;;;0.37;0.37;;;;;;;;;;7399382;19;20141;-92
2023/03/19 08:42:21;;;;;;;0.60;0.60;;;;;;;;;;7399121;19;20137;-91
2023/03/19 08:44:48;;;;;;;0.37;0.37;;;;;;;;;;7395424;19;20129;-92
2023/03/19 08:47:15;;;;;;;1.70;0.60;;;;;;;;;;7398550;19;20141;-92
2023/03/19 08:50:00;;;;;;;0.40;0.40;;;;;;;;;;7398137;19;20137;-90
2023/03/19 08:52:26;;;;;;;0.80;0.80;;;;;;;;;;7402971;19;20148;-88
2023/03/19 08:54:53;;;;;;;0.30;0.30;;;;;;;;;;7402357;19;20172;-86
2023/03/19 08:57:20;;;;;;;0.37;0.37;;;;;;;;;;7397374;19;20172;-84
2023/03/19 08:59:46;;;;;;;0.70;0.70;;;;;;;;;;7394681;19;20149;-88
2023/03/19 09:02:14;;;;;;;0.60;0.60;;;;;;;;;;7396903;19;20169;-88
2023/03/19 09:04:41;;;;;;;0.30;0.30;;;;;;;;;;7399909;19;20181;-87
2023/03/19 09:07:14;;;;;;;0.40;0.40;;;;;;;;;;7393813;19;20141;-86
2023/03/19 09:09:42;;;;;;;0.60;0.60;;;;;;;;;;7402763;19;20145;-86
2023/03/19 09:12:11;;;;;;;0.30;0.30;;;;;;;;;;7402526;19;20149;-86
2023/03/19 09:14:38;;;;;;;0.40;0.40;;;;;;;;;;7398817;19;20156;-86
2023/03/19 09:17:05;;;;;;;0.43;0.43;;;;;;;;;;7401202;19;20145;-85
2023/03/19 09:19:32;;;;;;;0.45;0.45;;;;;;;;;;7401703;19;20170;-89
2023/03/19 09:21:59;;;;;;;0.47;0.47;;;;;;;;;;7400242;19;20145;-90
2023/03/19 09:24:26;;;;;;;0.73;0.73;;;;;;;;;;7399220;19;20204;-90
2023/03/19 09:26:52;;;;;;;0.57;0.57;;;;;;;;;;7399273;19;20161;-89
2023/03/19 09:29:19;;;;;;;0.50;0.50;;;;;;;;;;7399021;19;20152;-91
2023/03/19 09:31:46;;;;;;;0.47;0.47;;;;;;;;;;7400152;19;20161;-90
2023/03/19 09:34:13;;;;;;;0.68;0.68;;;;;;;;;;7394998;19;20759;-91
2023/03/19 09:36:39;;;;;;;0.30;0.30;;;;;;;;;;7396564;19;20144;-89
2023/03/19 09:39:07;;;;;;;0.82;0.82;;;;;;;;;;7397780;19;20140;-89
2023/03/19 09:41:40;;;;;;;0.40;0.40;;;;;;;;;;7394785;19;20137;-88
2023/03/19 09:44:21;;;;;;;0.63;0.60;;;;;;;;;;7394172;19;20181;-87
2023/03/19 09:50:19;;;;;;;0.63;0.63;;;;;;;;;;7393442;19;20188;-90
2023/03/19 10:02:42;;;;;;;0.80;0.80;;;;;;;;;;7395037;19;20128;-90
2023/03/19 12:46:24;;;;;;;0.75;0.40;;;;;;;;;;7404316;19;20148;-92
2023/03/19 12:49:03;;;;;;;0.85;0.85;;;;;;;;;;7398289;19;20136;-91
2023/03/19 12:51:35;;;;;;;0.80;0.60;;;;;;;;;;7398265;19;20144;-91
2023/03/19 12:54:12;;;;;;;0.40;0.40;;;;;;;;;;7394194;19;20164;-91
2023/03/19 12:57:05;;;;;;;0.60;0.60;;;;;;;;;;7394688;19;20137;-91
2023/03/19 13:04:03;;;;;;;0.50;0.50;;;;;;;;;;7406469;19;20734;-94
2023/03/19 13:34:48;;;;;;;0.43;0.43;;;;;;;;;;7399371;19;20165;-89
2023/03/19 13:37:19;;;;;;;0.52;0.52;;;;;;;;;;7400369;19;20169;-88
2023/03/19 13:39:50;;;;;;;2.95;0.95;;;;;;;;;;7402121;19;20141;-88
2023/03/19 13:42:36;;;;;;;0.60;0.60;;;;;;;;;;7404570;19;20140;-88
2023/03/19 13:45:23;;;;;;;0.60;0.60;;;;;;;;;;7404314;19;20140;-88
2023/03/19 13:47:58;;;;;;;0.80;0.80;;;;;;;;;;7397863;19;20145;-88
2023/03/19 13:50:27;;;;;;;0.50;0.50;;;;;;;;;;7403749;19;20582;-88
2023/03/19 13:53:32;;;;;;;2.22;1.05;;;;;;;;;;7398206;19;20179;-87
2023/03/19 13:56:03;;;;;;;0.55;0.55;;;;;;;;;;7405055;19;20151;-88
2023/03/19 13:58:51;;;;;;;0.57;0.57;;;;;;;;;;7401036;19;20168;-90
2023/03/19 14:01:27;;;;;;;0.40;0.40;;;;;;;;;;7401974;19;20137;-87
2023/03/19 14:04:01;;;;;;;1.75;0.90;;;;;;;;;;7404826;19;20509;-87
2023/03/19 14:06:32;;;;;;;1.42;1.35;;;;;;;;;;7402773;19;20136;-87
2023/03/19 14:08:58;;;;;;;0.55;0.55;;;;;;;;;;7406202;19;20148;-87
2023/03/19 14:11:33;;;;;;;0.52;0.52;;;;;;;;;;7404666;19;20513;-90
2023/03/19 14:14:04;;;;;;;0.80;0.80;;;;;;;;;;7400452;19;20239;-90
2023/03/19 14:16:37;;;;;;;0.33;0.33;;;;;;;;;;7402630;19;20149;-89
2023/03/19 14:19:34;;;;;;;0.50;0.50;;;;;;;;;;7397169;19;20148;-88
2023/03/19 14:22:59;;;;;;;0.30;0.30;;;;;;;;;;7399648;19;20150;-87
2023/03/19 14:25:47;;;;;;;0.40;0.40;;;;;;;;;;7395265;19;20141;-86
2023/03/19 14:28:17;;;;;;;0.50;0.50;;;;;;;;;;7400865;19;20129;-88
2023/03/19 14:30:45;;;;;;;0.30;0.30;;;;;;;;;;7399175;19;20505;-88
2023/03/19 14:33:41;;;;;;;1.37;0.80;;;;;;;;;;7399921;19;20173;-87
2023/03/19 14:36:12;;;;;;;0.57;0.57;;;;;;;;;;7398375;19;20262;-88
2023/03/19 14:38:46;;;;;;;0.50;0.50;;;;;;;;;;7398299;19;20168;-89
2023/03/19 14:41:16;;;;;;;0.60;0.60;;;;;;;;;;7404156;19;20157;-86
2023/03/19 14:44:12;;;;;;;;;;;;;;;;;;;;;
2023/03/19 14:47:32;;;;;;;0.30;0.30;;;;;;;;;;7401105;19;20173;-87
2023/03/19 14:50:14;;;;;;;0.67;0.67;;;;;;;;;;7396178;19;20176;-90
2023/03/19 14:53:02;;;;;;;0.50;0.50;;;;;;;;;;7397793;19;20530;-89
2023/03/19 14:55:34;;;;;;;0.30;0.30;;;;;;;;;;7396534;19;20145;-88
2023/03/19 14:58:01;;;;;;;0.43;0.43;;;;;;;;;;7396661;19;20141;-89
2023/03/19 15:00:29;;;;;;;0.57;0.57;;;;;;;;;;7390707;19;20172;-90
2023/03/19 15:02:55;;;;;;;0.30;0.30;;;;;;;;;;7392181;19;20196;-90
2023/03/19 15:05:30;;;;;;;0.30;0.30;;;;;;;;;;7399284;19;20149;-92
2023/03/19 15:08:03;;;;;;;1.20;0.83;;;;;;;;;;7398763;19;20160;-90
2023/03/19 15:10:53;;;;;;;0.30;0.30;;;;;;;;;;7401417;19;20152;-92
2023/03/19 15:13:36;;;;;;;0.30;0.30;;;;;;;;;;7399594;19;20168;-90
2023/03/19 15:16:25;;;;;;;0.83;0.60;;;;;;;;;;7395825;19;20141;-90
2023/03/19 15:18:52;;;;;;;0.73;0.73;;;;;;;;;;7400989;19;20137;-90
2023/03/19 15:21:20;;;;;;;0.53;0.53;;;;;;;;;;7398794;19;20507;-92
2023/03/19 15:23:47;;;;;;;0.30;0.30;;;;;;;;;;7397703;19;20192;-92
2023/03/19 16:07:22;;;;;;;0.43;0.43;;;;;;;;;;7398492;19;20507;-91
2023/03/19 16:09:49;;;;;;;0.60;0.60;;;;;;;;;;7393831;19;20196;-91
2023/03/19 16:12:38;;;;;;;0.37;0.37;;;;;;;;;;7397963;19;20232;-90
2023/03/19 16:15:27;;;;;;;0.30;0.30;;;;;;;;;;7396183;19;20232;-90
2023/03/19 16:17:55;;;;;;;0.30;0.30;;;;;;;;;;7396111;19;20248;-90
2023/03/19 16:20:21;;;;;;;0.40;0.40;;;;;;;;;;7396553;19;20688;-90
2023/03/19 16:22:57;;;;;;;0.40;0.40;;;;;;;;;;7396230;19;20227;-90
2023/03/19 16:25:28;;;;;;;0.40;0.40;;;;;;;;;;7396876;19;21033;-91
2023/03/19 16:27:55;;;;;;;0.30;0.30;;;;;;;;;;7378558;19;20200;-89
2023/03/19 16:30:24;;;;;;;0.30;0.30;;;;;;;;;;7394281;19;20555;-89
2023/03/19 16:33:04;;;;;;;0.30;0.30;;;;;;;;;;7398115;19;20188;-90
2023/03/19 16:35:32;;;;;;;0.40;0.40;;;;;;;;;;7397866;19;20247;-90
2023/03/19 16:38:09;;;;;;;0.30;0.30;;;;;;;;;;7396604;19;20537;-89
2023/03/19 16:40:46;;;;;;;0.30;0.30;;;;;;;;;;7401561;19;20212;-89
2023/03/19 16:43:20;;;;;;;0.37;0.37;;;;;;;;;;7398728;19;20188;-89
2023/03/19 16:46:09;;;;;;;0.30;0.30;;;;;;;;;;7399485;19;20192;-88
2023/03/19 16:48:36;;;;;;;0.63;0.63;;;;;;;;;;7396074;19;20220;-89
2023/03/19 16:51:03;;;;;;;0.40;0.40;;;;;;;;;;7398136;19;20197;-89
2023/03/19 16:53:30;;;;;;;0.43;0.43;;;;;;;;;;7403000;19;20185;-89
2023/03/19 16:55:58;;;;;;;0.43;0.43;;;;;;;;;;7411801;19;20203;-89
2023/03/19 16:58:31;;;;;;;0.30;0.30;;;;;;;;;;7426998;19;20263;-88
2023/03/19 17:00:57;;;;;;;0.30;0.30;;;;;;;;;;7427781;19;20177;-91
2023/03/19 17:03:24;;;;;;;0.33;0.33;;;;;;;;;;7412803;19;20176;-91
2023/03/19 17:06:20;;;;;;;0.60;0.60;;;;;;;;;;7417682;19;20180;-91
2023/03/19 17:08:52;;;;;;;0.30;0.30;;;;;;;;;;7395947;19;20219;-89
2023/03/19 17:11:28;;;;;;;0.63;0.63;;;;;;;;;;7394410;19;20219;-89
2023/03/19 17:13:57;;;;;;;0.50;0.50;;;;;;;;;;7394601;19;20661;-90
2023/03/19 17:16:26;;;;;;;0.40;0.40;;;;;;;;;;7393826;19;21017;-92
2023/03/19 17:22:18;;;;;;;0.30;0.30;;;;;;;;;;7191105;19;20248;-92
2023/03/19 17:25:01;;;;;;;0.50;0.50;;;;;;;;;;7392313;19;20232;-92
2023/03/19 17:28:00;;;;;;;0.30;0.30;;;;;;;;;;7345836;19;20765;-92
2023/03/19 17:30:45;;;;;;;0.53;0.50;;;;;;;;;;7346317;19;20638;-92
2023/03/19 17:33:34;;;;;;;0.33;0.33;;;;;;;;;;7371864;19;20192;-92
2023/03/19 17:40:40;;;;;;;;;;;;;;;;;;;;;
2023/03/19 17:43:16;;;;;;;0.47;0.47;;;;;;;;;;7400925;19;20184;-91
2023/03/19 17:45:45;;;;;;;0.30;0.30;;;;;;;;;;7379328;19;20195;-91
2023/03/19 17:48:20;;;;;;;0.40;0.40;;;;;;;;;;7398349;19;20557;-91
2023/03/19 17:50:48;;;;;;;0.47;0.47;;;;;;;;;;7393454;19;20184;-91
2023/03/19 17:53:17;;;;;;;0.40;0.40;;;;;;;;;;7390605;19;20282;-92
2023/03/19 17:55:45;;;;;;;0.30;0.30;;;;;;;;;;7395406;19;20207;-92
2023/03/19 17:58:17;;;;;;;0.40;0.40;;;;;;;;;;7392573;19;20256;-91
2023/03/19 18:00:45;;;;;;;0.97;0.63;;;;;;;;;;7396829;19;20521;-90
2023/03/19 18:03:14;;;;;;;0.30;0.30;;;;;;;;;;7394904;19;20212;-91
2023/03/19 18:06:15;;;;;;;0.30;0.30;;;;;;;;;;7363419;19;20192;-91
2023/03/19 18:09:31;;;;;;;0.30;0.30;;;;;;;;;;7383493;19;20176;-91
2023/03/19 18:12:29;;;;;;;0.33;0.33;;;;;;;;;;7387995;19;20165;-92
2023/03/19 18:14:59;;;;;;;0.90;0.90;;;;;;;;;;7390912;19;20160;-92
2023/03/19 18:20:52;;;;;;;0.30;0.30;;;;;;;;;;7396279;19;20149;-88
2023/03/19 18:23:33;;;;;;;0.30;0.30;;;;;;;;;;7386291;19;20192;-91
2023/03/19 18:26:07;;;;;;;0.97;0.40;;;;;;;;;;7387397;19;20203;-92
2023/03/19 18:28:44;;;;;;;0.40;0.40;;;;;;;;;;7392965;19;20251;-90
2023/03/19 18:31:29;;;;;;;0.40;0.40;;;;;;;;;;7351908;19;20188;-91
2023/03/19 18:33:58;;;;;;;0.40;0.40;;;;;;;;;;7384768;19;20633;-91
2023/03/19 18:36:28;;;;;;;0.70;0.70;;;;;;;;;;7390829;19;20188;-91
2023/03/19 18:38:55;;;;;;;0.50;0.50;;;;;;;;;;7422684;19;20200;-90
2023/03/19 18:41:35;;;;;;;1.43;0.47;;;;;;;;;;7408216;19;20187;-93
2023/03/19 18:44:11;;;;;;;0.33;0.33;;;;;;;;;;7404926;19;20188;-93
2023/03/19 18:46:58;;;;;;;0.57;0.57;;;;;;;;;;7419028;19;20192;-93
2023/03/19 18:50:15;;;;;;;0.57;0.57;;;;;;;;;;7396972;19;20192;-93
2023/03/19 18:52:46;;;;;;;0.30;0.30;;;;;;;;;;7429989;19;20200;-93
